createdAt,value
2023-08-29T00:01:48.267Z,6.40
2023-08-29T00:04:52.558Z,8.20
2023-08-29T00:07:57.299Z,7.00
2023-08-29T00:11:04.096Z,6.50
2023-08-29T00:14:08.324Z,7.60
2023-08-29T00:17:12.418Z,8.90
2023-08-29T00:20:16.618Z,8.40
2023-08-29T00:23:21.076Z,7.30
2023-08-29T00:26:26.295Z,7.10
2023-08-29T00:29:30.610Z,6.50
2023-08-29T00:32:34.787Z,9.50
2023-08-29T00:35:40.968Z,8.60
2023-08-29T00:38:45.204Z,6.00
2023-08-29T00:41:50.615Z,6.30
2023-08-29T00:44:54.778Z,6.50
2023-08-29T00:48:00.225Z,5.90
2023-08-29T00:51:04.395Z,7.80
2023-08-29T00:54:12.394Z,7.50
2023-08-29T00:57:16.888Z,5.30
2023-08-29T01:00:22.920Z,6.90
2023-08-29T01:03:27.491Z,5.90
2023-08-29T01:06:33.775Z,6.40
2023-08-29T01:09:39.085Z,6.10
2023-08-29T01:13:05.638Z,5.70
2023-08-29T01:16:12.236Z,5.10
2023-08-29T01:19:16.880Z,5.40
2023-08-29T01:22:28.348Z,6.60
2023-08-29T01:25:52.193Z,5.80
2023-08-29T01:28:59.175Z,4.30
2023-08-29T01:32:04.521Z,4.50
2023-08-29T01:35:11.673Z,4.30
2023-08-29T01:38:19.461Z,5.40
2023-08-29T01:41:23.696Z,4.80
2023-08-29T01:44:27.896Z,4.90
2023-08-29T01:47:32.374Z,4.10
2023-08-29T01:53:43.506Z,4.70
2023-08-29T01:56:49.223Z,5.50
2023-08-29T01:59:54.277Z,6.50
2023-08-29T02:02:58.898Z,3.50
2023-08-29T02:06:03.589Z,4.60
2023-08-29T02:09:08.176Z,5.30
2023-08-29T02:12:14.150Z,4.50
2023-08-29T02:15:19.879Z,4.50
2023-08-29T02:18:26.481Z,4.50
2023-08-29T02:21:30.879Z,6.50
2023-08-29T02:27:39.484Z,4.90
2023-08-29T02:30:43.850Z,3.40
2023-08-29T02:33:48.363Z,4.90
2023-08-29T02:36:54.038Z,5.30
2023-08-29T02:39:59.337Z,3.50
2023-08-29T02:43:05.045Z,5.30
2023-08-29T02:46:09.264Z,3.40
2023-08-29T02:49:13.987Z,4.20
2023-08-29T02:52:18.113Z,3.80
2023-08-29T02:55:22.335Z,3.10
2023-08-29T02:58:26.552Z,6.70
2023-08-29T03:04:34.777Z,3.90
2023-08-29T03:07:41.071Z,5.40
2023-08-29T03:10:45.175Z,3.00
2023-08-29T03:13:49.464Z,4.50
2023-08-29T03:16:54.730Z,4.00
2023-08-29T03:19:59.677Z,3.20
2023-08-29T03:23:04.089Z,4.60
2023-08-29T03:32:20.081Z,3.50
2023-08-29T03:35:24.407Z,5.50
2023-08-29T03:38:28.994Z,3.60
2023-08-29T03:41:33.251Z,3.80
2023-08-29T03:44:37.358Z,4.30
2023-08-29T03:47:42.485Z,3.90
2023-08-29T03:50:46.623Z,5.70
2023-08-29T03:53:50.886Z,3.70
2023-08-29T03:56:55.645Z,3.90
2023-08-29T04:00:00.442Z,4.10
2023-08-29T04:03:07.516Z,4.10
2023-08-29T04:06:12.563Z,4.40
2023-08-29T04:09:17.326Z,3.80
2023-08-29T04:12:21.439Z,3.70
2023-08-29T04:15:25.979Z,4.20
2023-08-29T04:18:33.871Z,4.60
2023-08-29T04:21:38.212Z,4.20
2023-08-29T04:24:42.601Z,3.10
2023-08-29T04:30:52.622Z,4.30
2023-08-29T04:33:57.603Z,4.50
2023-08-29T04:37:01.789Z,5.40
2023-08-29T04:40:11.667Z,4.10
2023-08-29T04:43:15.797Z,3.10
2023-08-29T04:46:19.901Z,3.60
2023-08-29T04:52:29.317Z,5.10
2023-08-29T04:55:33.770Z,3.10
2023-08-29T04:58:38.122Z,3.60
2023-08-29T05:01:42.780Z,6.60
2023-08-29T05:04:48.873Z,3.90
2023-08-29T05:07:53.825Z,4.00
2023-08-29T05:11:03.098Z,4.20
2023-08-29T05:14:07.334Z,3.80
2023-08-29T05:17:11.696Z,4.10
2023-08-29T05:20:16.624Z,4.30
2023-08-29T05:23:20.956Z,5.20
2023-08-29T05:29:29.471Z,5.20
2023-08-29T05:32:33.617Z,6.80
2023-08-29T05:38:42.046Z,6.50
2023-08-29T05:44:50.857Z,9.20
2023-08-29T05:47:55.177Z,4.80
2023-08-29T05:50:59.551Z,6.40
2023-08-29T05:54:04.193Z,5.90
2023-08-29T05:57:08.697Z,4.90
2023-08-29T06:00:16.052Z,5.70
2023-08-29T06:03:22.887Z,4.00
2023-08-29T06:06:27.527Z,6.80
2023-08-29T06:09:34.560Z,5.40
2023-08-29T06:12:39.139Z,6.40
2023-08-29T06:15:44.243Z,5.50
2023-08-29T06:18:48.590Z,4.20
2023-08-29T06:24:56.911Z,3.50
2023-08-29T06:28:01.305Z,6.30
2023-08-29T06:31:08.602Z,6.40
2023-08-29T06:34:13.394Z,5.90
2023-08-29T06:40:21.788Z,5.80
2023-08-29T06:46:30.416Z,6.30
2023-08-29T06:49:35.209Z,5.60
2023-08-29T06:52:39.439Z,5.80
2023-08-29T06:58:47.749Z,5.00
2023-08-29T07:04:58.257Z,4.60
2023-08-29T07:11:08.126Z,7.80
2023-08-29T07:14:12.299Z,4.70
2023-08-29T07:17:16.633Z,4.20
2023-08-29T07:20:21.180Z,4.70
2023-08-29T07:23:26.790Z,4.80
2023-08-29T07:26:30.977Z,4.30
2023-08-29T07:29:35.715Z,6.70
2023-08-29T07:35:47.053Z,5.50
2023-08-29T07:38:51.324Z,4.50
2023-08-29T07:41:55.584Z,5.20
2023-08-29T07:48:05.663Z,6.70
2023-08-29T07:51:10.017Z,6.30
2023-08-29T07:54:14.153Z,5.10
2023-08-29T08:00:22.550Z,10.80
2023-08-29T08:06:31.380Z,9.10
2023-08-29T08:09:35.561Z,6.50
2023-08-29T08:15:44.831Z,8.50
2023-08-29T08:18:49.152Z,6.80
2023-08-29T08:24:57.392Z,10.80
2023-08-29T08:28:01.848Z,8.80
2023-08-29T08:31:07.993Z,9.50
2023-08-29T08:34:13.085Z,9.70
2023-08-29T08:37:17.382Z,11.00
2023-08-29T08:40:22.025Z,8.30
2023-08-29T08:43:27.546Z,10.30
2023-08-29T08:46:32.235Z,10.20
2023-08-29T08:49:39.309Z,11.40
2023-08-29T08:52:46.060Z,9.40
2023-08-29T08:55:51.431Z,10.80
2023-08-29T08:58:55.935Z,13.40
2023-08-29T09:02:00.354Z,16.80
2023-08-29T09:05:05.678Z,13.90
2023-08-29T09:08:11.188Z,11.50
2023-08-29T09:11:19.476Z,12.40
2023-08-29T09:14:25.001Z,13.30
2023-08-29T09:17:29.289Z,11.40
2023-08-29T09:20:34.730Z,12.70
2023-08-29T09:23:39.162Z,8.60
2023-08-29T09:26:43.460Z,10.10
2023-08-29T09:29:47.647Z,14.70
2023-08-29T09:32:52.936Z,9.50
2023-08-29T09:35:57.588Z,14.30
2023-08-29T09:39:03.733Z,11.50
2023-08-29T09:42:12.810Z,12.00
2023-08-29T09:45:17.671Z,12.70
2023-08-29T09:48:22.403Z,12.90
2023-08-29T09:51:29.718Z,10.20
2023-08-29T09:54:34.672Z,13.90
2023-08-29T09:57:40.801Z,12.50
2023-08-29T10:00:45.743Z,13.20
2023-08-29T10:03:50.670Z,13.30
2023-08-29T10:06:57.856Z,12.50
2023-08-29T10:10:02.947Z,12.50
2023-08-29T10:13:09.278Z,13.30
2023-08-29T10:16:15.369Z,15.20
2023-08-29T10:19:21.224Z,14.80
2023-08-29T10:22:29.496Z,13.00
2023-08-29T10:25:36.381Z,14.30
2023-08-29T10:28:41.734Z,15.70
2023-08-29T10:31:47.192Z,13.60
2023-08-29T10:34:52.558Z,15.00
2023-08-29T10:37:56.803Z,15.00
2023-08-29T10:44:29.748Z,13.50
2023-08-29T10:47:46.736Z,16.90
2023-08-29T10:51:09.397Z,14.60
2023-08-29T10:54:15.020Z,14.80
2023-08-29T10:57:30.207Z,14.60
2023-08-29T11:00:43.297Z,14.10
2023-08-29T11:03:50.044Z,12.80
2023-08-29T11:06:56.372Z,12.40
2023-08-29T11:10:33.192Z,14.40
2023-08-29T11:13:56.778Z,15.90
2023-08-29T11:17:13.793Z,16.80
2023-08-29T11:20:18.491Z,16.50
2023-08-29T11:23:23.507Z,19.90
2023-08-29T11:26:31.272Z,16.20
2023-08-29T11:29:38.455Z,15.90
2023-08-29T11:32:42.854Z,16.10
2023-08-29T11:35:47.455Z,15.20
2023-08-29T11:38:52.818Z,12.10
2023-08-29T11:42:07.969Z,15.10
2023-08-29T11:45:44.841Z,15.70
2023-08-29T11:48:45.755Z,16.20
2023-08-29T11:51:50.061Z,16.00
2023-08-29T11:54:55.206Z,17.00
2023-08-29T11:57:59.698Z,16.50
2023-08-29T12:01:06.132Z,17.70
2023-08-29T12:04:10.414Z,15.60
2023-08-29T12:10:20.819Z,12.60
2023-08-29T12:13:25.101Z,14.40
2023-08-29T12:16:29.765Z,15.20
2023-08-29T12:19:36.137Z,15.50
2023-08-29T12:22:49.476Z,15.80
2023-08-29T12:25:57.158Z,12.70
2023-08-29T12:29:01.300Z,13.80
2023-08-29T12:32:06.100Z,13.60
2023-08-29T12:35:11.576Z,13.70
2023-08-29T12:38:16.079Z,13.30
2023-08-29T12:41:20.751Z,13.50
2023-08-29T12:44:25.045Z,14.40
2023-08-29T12:50:33.445Z,15.30
2023-08-29T12:56:41.821Z,13.00
2023-08-29T12:59:46.554Z,14.50
2023-08-29T13:02:51.117Z,14.00
2023-08-29T13:05:55.772Z,13.90
2023-08-29T13:09:00.353Z,11.60
2023-08-29T13:12:07.912Z,13.20
2023-08-29T13:15:13.812Z,15.20
2023-08-29T13:18:18.140Z,16.60
2023-08-29T13:21:22.284Z,12.30
2023-08-29T13:24:26.440Z,16.50
2023-08-29T13:30:35.022Z,14.50
2023-08-29T13:33:39.451Z,14.00
2023-08-29T13:36:43.735Z,12.30
2023-08-29T13:39:55.902Z,14.80
2023-08-29T13:43:00.085Z,15.20
2023-08-29T13:46:05.268Z,13.90
2023-08-29T13:49:10.088Z,12.40
2023-08-29T13:52:14.279Z,14.40
2023-08-29T13:58:22.694Z,12.20
2023-08-29T14:01:27.150Z,9.90
2023-08-29T14:04:31.542Z,11.10
2023-08-29T14:10:40.083Z,13.60
2023-08-29T14:13:44.362Z,12.20
2023-08-29T14:16:48.649Z,12.80
2023-08-29T14:19:53.884Z,13.40
2023-08-29T14:23:02.030Z,11.10
2023-08-29T14:26:10.620Z,14.40
2023-08-29T14:29:14.681Z,11.30
2023-08-29T14:32:19.735Z,11.70
2023-08-29T14:35:23.793Z,12.20
2023-08-29T14:38:27.795Z,14.70
2023-08-29T14:41:31.778Z,11.30
2023-08-29T14:44:35.746Z,14.10
2023-08-29T14:47:39.689Z,13.10
2023-08-29T14:50:46.461Z,10.70
2023-08-29T14:53:51.375Z,11.70
2023-08-29T14:56:55.356Z,11.10
2023-08-29T14:59:59.440Z,11.30
2023-08-29T15:03:08.797Z,9.90
2023-08-29T15:06:16.699Z,9.60
2023-08-29T15:09:20.632Z,11.70
2023-08-29T15:12:24.626Z,10.40
2023-08-29T15:15:29.447Z,9.30
2023-08-29T15:18:33.953Z,10.70
2023-08-29T15:21:37.993Z,10.80
2023-08-29T15:24:42.081Z,9.80
2023-08-29T15:27:45.998Z,10.20
2023-08-29T15:30:53.408Z,12.20
2023-08-29T15:33:57.385Z,12.00
2023-08-29T15:37:05.615Z,11.70
2023-08-29T15:40:13.584Z,12.40
2023-08-29T15:43:18.684Z,11.30
2023-08-29T15:46:22.861Z,9.30
2023-08-29T15:52:31.762Z,12.80
2023-08-29T15:55:36.305Z,13.40
2023-08-29T15:58:41.377Z,11.70
2023-08-29T16:01:45.362Z,10.50
2023-08-29T16:04:49.376Z,11.80
2023-08-29T16:07:53.696Z,10.30
2023-08-29T16:14:02.426Z,13.30
2023-08-29T16:17:06.386Z,11.60
2023-08-29T16:20:11.393Z,12.30
2023-08-29T16:23:15.327Z,10.50
2023-08-29T16:26:22.892Z,9.70
2023-08-29T16:29:26.878Z,8.90
2023-08-29T16:32:30.971Z,10.40
2023-08-29T16:35:35.663Z,9.90
2023-08-29T16:38:39.871Z,10.80
2023-08-29T16:41:43.884Z,10.70
2023-08-29T16:44:48.164Z,11.80
2023-08-29T16:47:54.826Z,10.20
2023-08-29T16:50:58.911Z,10.60
2023-08-29T16:54:03.146Z,11.10
2023-08-29T16:57:07.150Z,13.00
2023-08-29T17:00:12.080Z,10.40
2023-08-29T17:03:16.190Z,9.10
2023-08-29T17:06:20.515Z,12.70
2023-08-29T17:09:24.581Z,13.90
2023-08-29T17:12:28.565Z,9.70
2023-08-29T17:15:32.666Z,10.10
2023-08-29T17:18:36.648Z,11.80
2023-08-29T17:21:41.273Z,14.30
2023-08-29T17:24:46.955Z,14.40
2023-08-29T17:27:50.939Z,15.10
2023-08-29T17:30:55.329Z,10.40
2023-08-29T17:33:59.389Z,11.70
2023-08-29T17:37:03.543Z,11.50
2023-08-29T17:43:13.161Z,12.40
2023-08-29T17:46:18.186Z,14.70
2023-08-29T17:49:22.314Z,15.40
2023-08-29T17:52:26.263Z,15.70
2023-08-29T17:55:30.297Z,10.20
2023-08-29T17:58:34.310Z,13.70
2023-08-29T18:01:38.543Z,10.70
2023-08-29T18:04:46.154Z,12.20
2023-08-29T18:07:50.297Z,10.70
2023-08-29T18:10:55.015Z,10.90
2023-08-29T18:13:59.007Z,11.10
2023-08-29T18:17:03.117Z,11.30
2023-08-29T18:23:11.429Z,11.90
2023-08-29T18:26:15.433Z,13.10
2023-08-29T18:29:19.391Z,13.00
2023-08-29T18:32:23.416Z,11.30
2023-08-29T18:35:27.376Z,12.50
2023-08-29T18:38:32.773Z,12.00
2023-08-29T18:41:36.786Z,9.80
2023-08-29T18:44:40.790Z,10.90
2023-08-29T18:47:44.965Z,12.30
2023-08-29T18:53:52.964Z,13.80
2023-08-29T18:56:56.916Z,13.40
2023-08-29T19:00:00.983Z,11.90
2023-08-29T19:03:05.167Z,15.10
2023-08-29T19:12:21.086Z,10.30
2023-08-29T19:15:25.682Z,10.80
2023-08-29T19:18:29.890Z,12.00
2023-08-29T19:21:33.864Z,16.00
2023-08-29T19:24:37.896Z,14.80
2023-08-29T19:27:42.106Z,14.40
2023-08-29T19:30:46.258Z,17.00
2023-08-29T19:33:50.282Z,15.50
2023-08-29T19:36:54.269Z,13.00
2023-08-29T19:39:58.203Z,16.10
2023-08-29T19:43:05.384Z,17.60
2023-08-29T19:46:09.498Z,18.40
2023-08-29T19:49:14.248Z,16.50
2023-08-29T19:52:18.565Z,14.20
2023-08-29T19:58:27.238Z,17.20
2023-08-29T20:01:32.794Z,15.00
2023-08-29T20:04:36.843Z,16.00
2023-08-29T20:07:41.130Z,15.90
2023-08-29T20:13:49.249Z,15.30
2023-08-29T20:16:53.940Z,14.80
2023-08-29T20:19:58.076Z,16.20
2023-08-29T20:23:02.440Z,16.20
2023-08-29T20:26:06.771Z,16.20
2023-08-29T20:29:10.719Z,13.30
2023-08-29T20:32:14.736Z,17.20
2023-08-29T20:35:19.241Z,14.40
2023-08-29T20:38:23.318Z,14.00
2023-08-29T20:41:27.559Z,14.80
2023-08-29T20:44:32.097Z,13.60
2023-08-29T20:47:37.032Z,15.90
2023-08-29T20:50:44.531Z,17.10
2023-08-29T20:53:48.582Z,17.80
2023-08-29T20:59:56.728Z,17.50
2023-08-29T21:03:00.780Z,14.80
2023-08-29T21:06:05.051Z,14.20
2023-08-29T21:09:11.732Z,18.00
2023-08-29T21:12:17.243Z,17.00
2023-08-29T21:15:21.245Z,16.80
2023-08-29T21:18:25.351Z,18.30
2023-08-29T21:21:29.366Z,16.50
2023-08-29T21:24:34.124Z,16.60
2023-08-29T21:27:38.111Z,16.30
2023-08-29T21:30:42.136Z,14.80
2023-08-29T21:33:46.251Z,18.50
2023-08-29T21:36:51.307Z,18.50
2023-08-29T21:39:55.514Z,15.90
2023-08-29T21:46:07.453Z,17.20
2023-08-29T21:49:11.554Z,17.20
2023-08-29T21:52:15.588Z,20.50
2023-08-29T21:55:20.416Z,18.00
2023-08-29T21:58:25.149Z,23.90
2023-08-29T22:01:29.142Z,19.60
2023-08-29T22:04:33.169Z,17.70
2023-08-29T22:07:37.741Z,19.00
2023-08-29T22:10:41.919Z,16.10
2023-08-29T22:13:46.917Z,17.30
2023-08-29T22:16:50.972Z,19.10
2023-08-29T22:19:54.946Z,19.50
2023-08-29T22:22:59.004Z,19.00
2023-08-29T22:26:07.554Z,19.20
2023-08-29T22:29:11.532Z,21.10
2023-08-29T22:32:15.720Z,20.70
2023-08-29T22:35:20.725Z,21.70
2023-08-29T22:38:25.044Z,20.80
2023-08-29T22:44:44.067Z,19.70
2023-08-29T22:47:51.479Z,22.00
2023-08-29T22:50:55.539Z,18.00
2023-08-29T22:53:59.668Z,17.40
2023-08-29T22:57:03.899Z,20.00
2023-08-29T23:00:14.152Z,20.20
2023-08-29T23:03:18.503Z,19.10
2023-08-29T23:06:23.146Z,20.40
2023-08-29T23:09:27.560Z,18.20
2023-08-29T23:12:31.563Z,19.30
2023-08-29T23:15:35.607Z,19.70
2023-08-29T23:18:40.628Z,21.00
2023-08-29T23:21:45.236Z,20.10
2023-08-29T23:24:49.578Z,20.50
2023-08-29T23:30:57.619Z,20.00
2023-08-29T23:34:01.658Z,22.30
2023-08-29T23:37:05.798Z,20.80
2023-08-29T23:40:10.838Z,22.20
2023-08-29T23:43:15.844Z,23.80
2023-08-29T23:46:20.690Z,23.10
2023-08-29T23:49:26.488Z,22.00
2023-08-29T23:52:30.510Z,20.60
2023-08-29T23:55:35.217Z,20.60
2023-08-29T23:58:39.215Z,20.10
